sensor_id;sensor_type;location;lat;lon;timestamp;temperature;humidity
16970;DHT22;8601;48.718;8.992;2022-10-16T00:01:31;15.00;99.90
16970;DHT22;8601;48.718;8.992;2022-10-16T00:03:59;14.90;99.90
16970;DHT22;8601;48.718;8.992;2022-10-16T00:06:49;14.90;99.90
16970;DHT22;8601;48.718;8.992;2022-10-16T00:09:16;14.90;99.90
16970;DHT22;8601;48.718;8.992;2022-10-16T00:11:43;14.90;99.90
16970;DHT22;8601;48.718;8.992;2022-10-16T00:14:12;14.90;99.90
16970;DHT22;8601;48.718;8.992;2022-10-16T00:16:39;14.90;99.90
16970;DHT22;8601;48.718;8.992;2022-10-16T00:19:06;14.80;99.90
16970;DHT22;8601;48.718;8.992;2022-10-16T00:21:34;14.80;99.90
16970;DHT22;8601;48.718;8.992;2022-10-16T00:24:04;14.80;99.90
16970;DHT22;8601;48.718;8.992;2022-10-16T00:26:33;14.80;99.90
16970;DHT22;8601;48.718;8.992;2022-10-16T00:29:00;14.80;99.90
16970;DHT22;8601;48.718;8.992;2022-10-16T00:31:28;14.80;99.90
16970;DHT22;8601;48.718;8.992;2022-10-16T00:33:55;14.70;99.90
16970;DHT22;8601;48.718;8.992;2022-10-16T00:36:24;14.60;99.90
16970;DHT22;8601;48.718;8.992;2022-10-16T00:38:52;14.60;99.90
16970;DHT22;8601;48.718;8.992;2022-10-16T00:41:23;14.50;99.90
16970;DHT22;8601;48.718;8.992;2022-10-16T00:43:52;14.40;99.90
16970;DHT22;8601;48.718;8.992;2022-10-16T00:46:21;14.40;99.90
16970;DHT22;8601;48.718;8.992;2022-10-16T00:48:59;14.30;99.90
16970;DHT22;8601;48.718;8.992;2022-10-16T00:51:31;14.30;99.90
16970;DHT22;8601;48.718;8.992;2022-10-16T00:53:59;14.30;99.90
16970;DHT22;8601;48.718;8.992;2022-10-16T00:56:28;14.30;99.90
16970;DHT22;8601;48.718;8.992;2022-10-16T00:58:56;14.30;99.90
16970;DHT22;8601;48.718;8.992;2022-10-16T01:01:23;14.30;99.90
16970;DHT22;8601;48.718;8.992;2022-10-16T01:03:50;14.30;99.90
16970;DHT22;8601;48.718;8.992;2022-10-16T01:06:24;14.40;99.90
16970;DHT22;8601;48.718;8.992;2022-10-16T01:09:11;14.40;99.90
16970;DHT22;8601;48.718;8.992;2022-10-16T01:11:45;14.40;99.90
16970;DHT22;8601;48.718;8.992;2022-10-16T01:14:22;14.40;99.90
16970;DHT22;8601;48.718;8.992;2022-10-16T01:16:54;14.50;99.90
16970;DHT22;8601;48.718;8.992;2022-10-16T01:19:36;14.50;99.90
16970;DHT22;8601;48.718;8.992;2022-10-16T01:22:06;14.50;99.90
16970;DHT22;8601;48.718;8.992;2022-10-16T01:24:39;14.60;99.90
16970;DHT22;8601;48.718;8.992;2022-10-16T01:27:12;14.50;99.90
16970;DHT22;8601;48.718;8.992;2022-10-16T01:29:48;14.50;99.90
16970;DHT22;8601;48.718;8.992;2022-10-16T01:32:27;14.50;99.90
16970;DHT22;8601;48.718;8.992;2022-10-16T01:35:00;14.50;99.90
16970;DHT22;8601;48.718;8.992;2022-10-16T01:37:35;14.50;99.90
16970;DHT22;8601;48.718;8.992;2022-10-16T01:40:05;14.50;99.90
16970;DHT22;8601;48.718;8.992;2022-10-16T01:42:39;14.50;99.90
16970;DHT22;8601;48.718;8.992;2022-10-16T01:45:08;14.50;99.90
16970;DHT22;8601;48.718;8.992;2022-10-16T01:47:57;14.50;99.90
16970;DHT22;8601;48.718;8.992;2022-10-16T01:50:25;14.50;99.90
16970;DHT22;8601;48.718;8.992;2022-10-16T01:52:55;14.50;99.90
16970;DHT22;8601;48.718;8.992;2022-10-16T01:55:28;14.50;99.90
16970;DHT22;8601;48.718;8.992;2022-10-16T01:57:59;14.50;99.90
16970;DHT22;8601;48.718;8.992;2022-10-16T02:00:27;14.60;99.90
16970;DHT22;8601;48.718;8.992;2022-10-16T02:02:57;14.60;99.90
16970;DHT22;8601;48.718;8.992;2022-10-16T02:05:28;14.60;99.90
16970;DHT22;8601;48.718;8.992;2022-10-16T02:07:57;14.60;99.90
16970;DHT22;8601;48.718;8.992;2022-10-16T02:10:24;14.60;99.90
16970;DHT22;8601;48.718;8.992;2022-10-16T02:12:55;14.60;99.90
16970;DHT22;8601;48.718;8.992;2022-10-16T02:15:25;14.60;99.90
16970;DHT22;8601;48.718;8.992;2022-10-16T02:17:52;14.60;99.90
16970;DHT22;8601;48.718;8.992;2022-10-16T02:20:26;14.60;99.90
16970;DHT22;8601;48.718;8.992;2022-10-16T02:22:54;14.60;99.90
16970;DHT22;8601;48.718;8.992;2022-10-16T02:25:36;14.60;99.90
16970;DHT22;8601;48.718;8.992;2022-10-16T02:28:07;14.60;99.90
16970;DHT22;8601;48.718;8.992;2022-10-16T02:30:40;14.70;99.90
16970;DHT22;8601;48.718;8.992;2022-10-16T02:33:11;14.60;99.90
16970;DHT22;8601;48.718;8.992;2022-10-16T02:35:40;14.60;99.90
16970;DHT22;8601;48.718;8.992;2022-10-16T02:38:08;14.60;99.90
16970;DHT22;8601;48.718;8.992;2022-10-16T02:40:36;14.60;99.90
16970;DHT22;8601;48.718;8.992;2022-10-16T02:43:05;14.60;99.90
16970;DHT22;8601;48.718;8.992;2022-10-16T02:45:33;14.60;99.90
16970;DHT22;8601;48.718;8.992;2022-10-16T02:48:02;14.50;99.90
16970;DHT22;8601;48.718;8.992;2022-10-16T02:50:28;14.50;99.90
16970;DHT22;8601;48.718;8.992;2022-10-16T02:52:55;14.40;99.90
16970;DHT22;8601;48.718;8.992;2022-10-16T02:55:22;14.40;99.90
16970;DHT22;8601;48.718;8.992;2022-10-16T02:57:49;14.30;99.90
16970;DHT22;8601;48.718;8.992;2022-10-16T03:00:17;14.30;99.90
16970;DHT22;8601;48.718;8.992;2022-10-16T03:02:44;14.30;99.90
16970;DHT22;8601;48.718;8.992;2022-10-16T03:05:12;14.30;99.90
16970;DHT22;8601;48.718;8.992;2022-10-16T03:07:39;14.70;99.90
16970;DHT22;8601;48.718;8.992;2022-10-16T03:10:25;14.70;99.90
16970;DHT22;8601;48.718;8.992;2022-10-16T03:12:51;14.60;99.90
16970;DHT22;8601;48.718;8.992;2022-10-16T03:15:18;14.70;99.90
16970;DHT22;8601;48.718;8.992;2022-10-16T03:17:45;14.60;99.90
16970;DHT22;8601;48.718;8.992;2022-10-16T03:20:14;14.60;99.90
16970;DHT22;8601;48.718;8.992;2022-10-16T03:22:40;14.60;99.90
16970;DHT22;8601;48.718;8.992;2022-10-16T03:25:08;14.60;99.90
16970;DHT22;8601;48.718;8.992;2022-10-16T03:27:40;14.60;99.90
16970;DHT22;8601;48.718;8.992;2022-10-16T03:30:08;14.60;99.90
16970;DHT22;8601;48.718;8.992;2022-10-16T03:32:35;14.50;99.90
16970;DHT22;8601;48.718;8.992;2022-10-16T03:35:02;14.50;99.90
16970;DHT22;8601;48.718;8.992;2022-10-16T03:37:30;14.50;99.90
16970;DHT22;8601;48.718;8.992;2022-10-16T03:39:57;14.60;99.90
16970;DHT22;8601;48.718;8.992;2022-10-16T03:42:54;14.50;99.90
16970;DHT22;8601;48.718;8.992;2022-10-16T03:45:22;14.40;99.90
16970;DHT22;8601;48.718;8.992;2022-10-16T03:47:49;14.40;99.90
16970;DHT22;8601;48.718;8.992;2022-10-16T03:50:16;14.50;99.90
16970;DHT22;8601;48.718;8.992;2022-10-16T03:55:56;14.50;99.90
16970;DHT22;8601;48.718;8.992;2022-10-16T03:58:23;14.50;99.90
16970;DHT22;8601;48.718;8.992;2022-10-16T04:00:51;14.60;99.90
16970;DHT22;8601;48.718;8.992;2022-10-16T04:03:17;14.60;99.90
16970;DHT22;8601;48.718;8.992;2022-10-16T04:05:45;14.60;99.90
16970;DHT22;8601;48.718;8.992;2022-10-16T04:08:11;14.50;99.90
16970;DHT22;8601;48.718;8.992;2022-10-16T04:10:38;14.50;99.90
16970;DHT22;8601;48.718;8.992;2022-10-16T04:13:06;14.60;99.90
16970;DHT22;8601;48.718;8.992;2022-10-16T04:15:39;14.60;99.90
16970;DHT22;8601;48.718;8.992;2022-10-16T04:18:06;14.50;99.90
16970;DHT22;8601;48.718;8.992;2022-10-16T04:20:33;14.50;99.90
16970;DHT22;8601;48.718;8.992;2022-10-16T04:23:25;14.50;99.90
16970;DHT22;8601;48.718;8.992;2022-10-16T04:25:52;14.50;99.90
16970;DHT22;8601;48.718;8.992;2022-10-16T04:28:20;14.50;99.90
16970;DHT22;8601;48.718;8.992;2022-10-16T04:31:03;14.40;99.90
16970;DHT22;8601;48.718;8.992;2022-10-16T04:33:30;14.40;99.90
16970;DHT22;8601;48.718;8.992;2022-10-16T04:35:57;14.40;99.90
16970;DHT22;8601;48.718;8.992;2022-10-16T04:38:25;14.40;99.90
16970;DHT22;8601;48.718;8.992;2022-10-16T04:40:52;14.40;99.90
16970;DHT22;8601;48.718;8.992;2022-10-16T04:43:20;14.50;99.90
16970;DHT22;8601;48.718;8.992;2022-10-16T04:45:47;14.50;99.90
16970;DHT22;8601;48.718;8.992;2022-10-16T04:48:16;14.60;99.90
16970;DHT22;8601;48.718;8.992;2022-10-16T04:50:43;14.60;99.90
16970;DHT22;8601;48.718;8.992;2022-10-16T04:56:30;14.70;99.90
16970;DHT22;8601;48.718;8.992;2022-10-16T04:58:58;14.70;99.90
16970;DHT22;8601;48.718;8.992;2022-10-16T05:01:25;14.70;99.90
16970;DHT22;8601;48.718;8.992;2022-10-16T05:03:52;14.70;99.90
16970;DHT22;8601;48.718;8.992;2022-10-16T05:06:37;14.70;99.90
16970;DHT22;8601;48.718;8.992;2022-10-16T05:09:05;14.70;99.90
16970;DHT22;8601;48.718;8.992;2022-10-16T05:11:32;14.70;99.90
16970;DHT22;8601;48.718;8.992;2022-10-16T05:14:00;14.70;99.90
16970;DHT22;8601;48.718;8.992;2022-10-16T05:16:41;14.70;99.90
16970;DHT22;8601;48.718;8.992;2022-10-16T05:19:08;14.70;99.90
16970;DHT22;8601;48.718;8.992;2022-10-16T05:24:57;14.60;99.90
16970;DHT22;8601;48.718;8.992;2022-10-16T05:27:24;14.60;99.90
16970;DHT22;8601;48.718;8.992;2022-10-16T05:29:52;14.50;99.90
16970;DHT22;8601;48.718;8.992;2022-10-16T05:32:35;14.50;99.90
16970;DHT22;8601;48.718;8.992;2022-10-16T05:35:02;14.40;99.90
16970;DHT22;8601;48.718;8.992;2022-10-16T05:37:29;14.40;99.90
16970;DHT22;8601;48.718;8.992;2022-10-16T05:39:56;14.30;99.90
16970;DHT22;8601;48.718;8.992;2022-10-16T05:42:23;14.30;99.90
16970;DHT22;8601;48.718;8.992;2022-10-16T05:45:08;14.30;99.90
16970;DHT22;8601;48.718;8.992;2022-10-16T05:47:35;14.30;99.90
16970;DHT22;8601;48.718;8.992;2022-10-16T05:50:03;14.30;99.90
16970;DHT22;8601;48.718;8.992;2022-10-16T05:52:30;14.30;99.90
16970;DHT22;8601;48.718;8.992;2022-10-16T05:55:02;14.30;99.90
16970;DHT22;8601;48.718;8.992;2022-10-16T05:57:29;14.30;99.90
16970;DHT22;8601;48.718;8.992;2022-10-16T05:59:56;14.40;99.90
16970;DHT22;8601;48.718;8.992;2022-10-16T06:02:25;14.40;99.90
16970;DHT22;8601;48.718;8.992;2022-10-16T06:04:52;14.40;99.90
16970;DHT22;8601;48.718;8.992;2022-10-16T06:07:20;14.40;99.90
16970;DHT22;8601;48.718;8.992;2022-10-16T06:09:55;14.40;99.90
16970;DHT22;8601;48.718;8.992;2022-10-16T06:12:22;14.50;99.90
16970;DHT22;8601;48.718;8.992;2022-10-16T06:14:49;14.50;99.90
16970;DHT22;8601;48.718;8.992;2022-10-16T06:17:16;14.50;99.90
16970;DHT22;8601;48.718;8.992;2022-10-16T06:20:02;14.50;99.90
16970;DHT22;8601;48.718;8.992;2022-10-16T06:22:29;14.50;99.90
16970;DHT22;8601;48.718;8.992;2022-10-16T06:24:56;14.50;99.90
16970;DHT22;8601;48.718;8.992;2022-10-16T06:27:23;14.50;99.90
16970;DHT22;8601;48.718;8.992;2022-10-16T06:29:49;14.50;99.90
16970;DHT22;8601;48.718;8.992;2022-10-16T06:32:16;14.50;99.90
16970;DHT22;8601;48.718;8.992;2022-10-16T06:34:43;14.50;99.90
16970;DHT22;8601;48.718;8.992;2022-10-16T06:37:12;14.60;99.90
16970;DHT22;8601;48.718;8.992;2022-10-16T06:39:39;14.60;99.90
16970;DHT22;8601;48.718;8.992;2022-10-16T06:42:06;14.60;99.90
16970;DHT22;8601;48.718;8.992;2022-10-16T06:44:34;14.60;99.90
16970;DHT22;8601;48.718;8.992;2022-10-16T06:47:00;14.70;99.90
16970;DHT22;8601;48.718;8.992;2022-10-16T06:49:27;14.70;99.90
16970;DHT22;8601;48.718;8.992;2022-10-16T06:51:54;14.70;99.90
16970;DHT22;8601;48.718;8.992;2022-10-16T06:54:23;14.70;99.90
16970;DHT22;8601;48.718;8.992;2022-10-16T06:56:51;14.80;99.90
16970;DHT22;8601;48.718;8.992;2022-10-16T06:59:19;14.80;99.90
16970;DHT22;8601;48.718;8.992;2022-10-16T07:01:47;14.80;99.90
16970;DHT22;8601;48.718;8.992;2022-10-16T07:04:14;14.90;99.90
16970;DHT22;8601;48.718;8.992;2022-10-16T07:06:41;14.90;99.90
16970;DHT22;8601;48.718;8.992;2022-10-16T07:09:09;15.00;99.90
16970;DHT22;8601;48.718;8.992;2022-10-16T07:11:40;15.00;99.90
16970;DHT22;8601;48.718;8.992;2022-10-16T07:14:14;15.10;99.90
16970;DHT22;8601;48.718;8.992;2022-10-16T07:16:42;15.10;99.90
16970;DHT22;8601;48.718;8.992;2022-10-16T07:19:09;15.20;99.90
16970;DHT22;8601;48.718;8.992;2022-10-16T07:21:38;15.20;99.90
16970;DHT22;8601;48.718;8.992;2022-10-16T07:24:07;15.20;99.90
16970;DHT22;8601;48.718;8.992;2022-10-16T07:26:36;15.20;99.90
16970;DHT22;8601;48.718;8.992;2022-10-16T07:29:12;15.20;99.90
16970;DHT22;8601;48.718;8.992;2022-10-16T07:31:40;15.20;99.90
16970;DHT22;8601;48.718;8.992;2022-10-16T07:34:07;15.20;99.90
16970;DHT22;8601;48.718;8.992;2022-10-16T07:36:34;15.30;99.90
16970;DHT22;8601;48.718;8.992;2022-10-16T07:39:01;15.30;99.90
16970;DHT22;8601;48.718;8.992;2022-10-16T07:41:28;15.30;99.90
16970;DHT22;8601;48.718;8.992;2022-10-16T07:43:55;15.30;99.90
16970;DHT22;8601;48.718;8.992;2022-10-16T07:46:27;15.40;99.90
16970;DHT22;8601;48.718;8.992;2022-10-16T07:48:54;15.40;99.90
16970;DHT22;8601;48.718;8.992;2022-10-16T07:51:24;15.50;99.90
16970;DHT22;8601;48.718;8.992;2022-10-16T07:53:52;15.50;99.90
16970;DHT22;8601;48.718;8.992;2022-10-16T07:56:20;15.60;99.90
16970;DHT22;8601;48.718;8.992;2022-10-16T07:58:47;15.60;99.90
16970;DHT22;8601;48.718;8.992;2022-10-16T08:01:16;15.60;99.90
16970;DHT22;8601;48.718;8.992;2022-10-16T08:03:46;15.60;99.90
16970;DHT22;8601;48.718;8.992;2022-10-16T08:06:13;15.70;99.90
16970;DHT22;8601;48.718;8.992;2022-10-16T08:08:40;15.70;99.90
16970;DHT22;8601;48.718;8.992;2022-10-16T08:11:08;15.80;99.90
16970;DHT22;8601;48.718;8.992;2022-10-16T08:13:35;15.90;99.90
16970;DHT22;8601;48.718;8.992;2022-10-16T08:16:10;15.90;99.90
16970;DHT22;8601;48.718;8.992;2022-10-16T08:18:40;16.00;99.90
16970;DHT22;8601;48.718;8.992;2022-10-16T08:21:12;16.10;99.90
16970;DHT22;8601;48.718;8.992;2022-10-16T08:23:44;16.30;99.90
16970;DHT22;8601;48.718;8.992;2022-10-16T08:26:12;16.30;99.90
16970;DHT22;8601;48.718;8.992;2022-10-16T08:28:39;16.30;99.90
16970;DHT22;8601;48.718;8.992;2022-10-16T08:31:08;16.40;99.90
16970;DHT22;8601;48.718;8.992;2022-10-16T08:33:35;16.40;99.90
16970;DHT22;8601;48.718;8.992;2022-10-16T08:36:03;16.40;99.90
16970;DHT22;8601;48.718;8.992;2022-10-16T08:38:31;16.40;99.90
16970;DHT22;8601;48.718;8.992;2022-10-16T08:41:09;16.40;99.90
16970;DHT22;8601;48.718;8.992;2022-10-16T08:43:54;16.40;99.90
16970;DHT22;8601;48.718;8.992;2022-10-16T08:46:31;16.50;99.90
16970;DHT22;8601;48.718;8.992;2022-10-16T08:49:00;16.50;99.90
16970;DHT22;8601;48.718;8.992;2022-10-16T08:51:31;16.50;99.90
16970;DHT22;8601;48.718;8.992;2022-10-16T08:54:02;16.50;99.90
16970;DHT22;8601;48.718;8.992;2022-10-16T08:56:30;16.60;99.90
16970;DHT22;8601;48.718;8.992;2022-10-16T08:59:01;16.60;99.90
16970;DHT22;8601;48.718;8.992;2022-10-16T09:01:38;16.60;99.90
16970;DHT22;8601;48.718;8.992;2022-10-16T09:04:43;16.70;99.90
16970;DHT22;8601;48.718;8.992;2022-10-16T09:07:18;16.80;99.90
16970;DHT22;8601;48.718;8.992;2022-10-16T09:10:08;16.90;99.90
16970;DHT22;8601;48.718;8.992;2022-10-16T09:12:53;17.00;99.90
16970;DHT22;8601;48.718;8.992;2022-10-16T09:15:34;17.30;99.90
16970;DHT22;8601;48.718;8.992;2022-10-16T09:18:20;17.50;99.90
16970;DHT22;8601;48.718;8.992;2022-10-16T09:21:01;17.80;99.90
16970;DHT22;8601;48.718;8.992;2022-10-16T09:23:34;18.20;99.90
16970;DHT22;8601;48.718;8.992;2022-10-16T09:26:05;18.40;99.90
16970;DHT22;8601;48.718;8.992;2022-10-16T09:28:32;18.80;99.90
16970;DHT22;8601;48.718;8.992;2022-10-16T09:31:02;18.80;99.90
16970;DHT22;8601;48.718;8.992;2022-10-16T09:33:33;18.60;99.90
16970;DHT22;8601;48.718;8.992;2022-10-16T09:36:03;18.50;99.90
16970;DHT22;8601;48.718;8.992;2022-10-16T09:38:33;18.30;99.90
16970;DHT22;8601;48.718;8.992;2022-10-16T09:41:10;18.20;99.90
16970;DHT22;8601;48.718;8.992;2022-10-16T09:43:41;18.20;99.90
16970;DHT22;8601;48.718;8.992;2022-10-16T09:46:29;18.30;99.90
16970;DHT22;8601;48.718;8.992;2022-10-16T09:49:04;18.30;99.90
16970;DHT22;8601;48.718;8.992;2022-10-16T09:51:33;18.30;99.90
16970;DHT22;8601;48.718;8.992;2022-10-16T09:54:11;18.60;99.90
16970;DHT22;8601;48.718;8.992;2022-10-16T09:56:40;18.60;99.90
16970;DHT22;8601;48.718;8.992;2022-10-16T09:59:13;19.00;99.90
16970;DHT22;8601;48.718;8.992;2022-10-16T10:01:45;19.10;99.90
16970;DHT22;8601;48.718;8.992;2022-10-16T10:04:13;19.10;99.90
16970;DHT22;8601;48.718;8.992;2022-10-16T10:06:43;19.20;99.90
16970;DHT22;8601;48.718;8.992;2022-10-16T10:09:19;19.20;99.90
16970;DHT22;8601;48.718;8.992;2022-10-16T10:14:55;19.30;99.90
16970;DHT22;8601;48.718;8.992;2022-10-16T10:17:24;19.40;99.90
16970;DHT22;8601;48.718;8.992;2022-10-16T10:19:53;19.40;99.90
16970;DHT22;8601;48.718;8.992;2022-10-16T10:22:30;19.40;99.90
16970;DHT22;8601;48.718;8.992;2022-10-16T10:28:21;19.50;99.90
16970;DHT22;8601;48.718;8.992;2022-10-16T10:30:56;19.50;99.90
16970;DHT22;8601;48.718;8.992;2022-10-16T10:33:32;19.60;99.90
16970;DHT22;8601;48.718;8.992;2022-10-16T10:36:15;19.60;99.90
16970;DHT22;8601;48.718;8.992;2022-10-16T10:38:49;19.60;99.90
16970;DHT22;8601;48.718;8.992;2022-10-16T10:41:35;19.70;99.90
16970;DHT22;8601;48.718;8.992;2022-10-16T10:44:16;19.80;99.90
16970;DHT22;8601;48.718;8.992;2022-10-16T10:46:50;20.10;99.90
16970;DHT22;8601;48.718;8.992;2022-10-16T10:49:32;20.50;99.90
16970;DHT22;8601;48.718;8.992;2022-10-16T10:52:13;20.60;99.90
16970;DHT22;8601;48.718;8.992;2022-10-16T10:54:49;20.70;99.90
16970;DHT22;8601;48.718;8.992;2022-10-16T10:57:42;20.80;99.90
16970;DHT22;8601;48.718;8.992;2022-10-16T11:00:20;20.80;99.90
16970;DHT22;8601;48.718;8.992;2022-10-16T11:03:06;20.70;99.90
16970;DHT22;8601;48.718;8.992;2022-10-16T11:05:41;20.70;99.90
16970;DHT22;8601;48.718;8.992;2022-10-16T11:08:29;20.80;99.90
16970;DHT22;8601;48.718;8.992;2022-10-16T11:11:17;20.80;99.90
16970;DHT22;8601;48.718;8.992;2022-10-16T11:13:52;20.80;99.90
16970;DHT22;8601;48.718;8.992;2022-10-16T11:16:27;20.70;99.90
16970;DHT22;8601;48.718;8.992;2022-10-16T11:18:59;20.60;99.90
16970;DHT22;8601;48.718;8.992;2022-10-16T11:21:34;20.60;99.90
16970;DHT22;8601;48.718;8.992;2022-10-16T11:24:09;20.60;99.90
16970;DHT22;8601;48.718;8.992;2022-10-16T11:26:53;20.60;99.90
16970;DHT22;8601;48.718;8.992;2022-10-16T11:29:25;20.70;99.90
16970;DHT22;8601;48.718;8.992;2022-10-16T11:31:58;20.60;99.90
16970;DHT22;8601;48.718;8.992;2022-10-16T11:34:32;20.60;99.90
16970;DHT22;8601;48.718;8.992;2022-10-16T11:37:04;20.80;99.90
16970;DHT22;8601;48.718;8.992;2022-10-16T11:39:31;21.00;99.90
16970;DHT22;8601;48.718;8.992;2022-10-16T11:42:18;21.30;99.90
16970;DHT22;8601;48.718;8.992;2022-10-16T11:44:53;21.50;99.90
16970;DHT22;8601;48.718;8.992;2022-10-16T11:47:27;21.80;99.90
16970;DHT22;8601;48.718;8.992;2022-10-16T11:50:01;21.90;99.90
16970;DHT22;8601;48.718;8.992;2022-10-16T11:52:33;22.10;99.90
16970;DHT22;8601;48.718;8.992;2022-10-16T11:55:08;22.20;99.90
16970;DHT22;8601;48.718;8.992;2022-10-16T11:57:43;22.40;99.90
16970;DHT22;8601;48.718;8.992;2022-10-16T12:00:29;22.40;99.90
16970;DHT22;8601;48.718;8.992;2022-10-16T12:03:02;22.50;99.90
16970;DHT22;8601;48.718;8.992;2022-10-16T12:08:41;22.60;99.90
16970;DHT22;8601;48.718;8.992;2022-10-16T12:11:22;22.60;99.60
16970;DHT22;8601;48.718;8.992;2022-10-16T12:13:50;22.50;98.80
16970;DHT22;8601;48.718;8.992;2022-10-16T12:16:24;22.40;98.90
16970;DHT22;8601;48.718;8.992;2022-10-16T12:19:23;22.50;99.10
16970;DHT22;8601;48.718;8.992;2022-10-16T12:21:51;22.50;97.70
16970;DHT22;8601;48.718;8.992;2022-10-16T12:24:31;22.50;96.80
16970;DHT22;8601;48.718;8.992;2022-10-16T12:26:58;22.50;96.50
16970;DHT22;8601;48.718;8.992;2022-10-16T12:29:32;22.50;97.40
16970;DHT22;8601;48.718;8.992;2022-10-16T12:32:00;22.50;95.20
16970;DHT22;8601;48.718;8.992;2022-10-16T12:34:38;22.50;96.50
16970;DHT22;8601;48.718;8.992;2022-10-16T12:37:10;22.30;96.50
16970;DHT22;8601;48.718;8.992;2022-10-16T12:39:40;22.00;95.60
16970;DHT22;8601;48.718;8.992;2022-10-16T12:42:21;21.80;96.70
16970;DHT22;8601;48.718;8.992;2022-10-16T12:47:51;21.60;97.50
16970;DHT22;8601;48.718;8.992;2022-10-16T12:50:36;21.60;97.70
16970;DHT22;8601;48.718;8.992;2022-10-16T12:53:17;21.50;98.00
16970;DHT22;8601;48.718;8.992;2022-10-16T12:56:00;21.40;98.30
16970;DHT22;8601;48.718;8.992;2022-10-16T12:58:53;21.40;98.40
16970;DHT22;8601;48.718;8.992;2022-10-16T13:01:38;21.40;98.60
16970;DHT22;8601;48.718;8.992;2022-10-16T13:04:26;21.40;98.40
16970;DHT22;8601;48.718;8.992;2022-10-16T13:07:11;21.40;97.80
16970;DHT22;8601;48.718;8.992;2022-10-16T13:09:50;21.30;98.00
16970;DHT22;8601;48.718;8.992;2022-10-16T13:12:34;21.30;98.20
16970;DHT22;8601;48.718;8.992;2022-10-16T13:15:19;21.20;99.20
16970;DHT22;8601;48.718;8.992;2022-10-16T13:18:09;21.20;99.40
16970;DHT22;8601;48.718;8.992;2022-10-16T13:20:51;21.20;99.90
16970;DHT22;8601;48.718;8.992;2022-10-16T13:23:37;21.20;99.90
16970;DHT22;8601;48.718;8.992;2022-10-16T13:26:22;21.30;99.90
16970;DHT22;8601;48.718;8.992;2022-10-16T13:28:52;21.50;99.20
16970;DHT22;8601;48.718;8.992;2022-10-16T13:31:25;21.60;99.90
16970;DHT22;8601;48.718;8.992;2022-10-16T13:33:54;21.60;99.90
16970;DHT22;8601;48.718;8.992;2022-10-16T13:36:26;21.60;99.60
16970;DHT22;8601;48.718;8.992;2022-10-16T13:39:11;21.70;99.40
16970;DHT22;8601;48.718;8.992;2022-10-16T13:41:40;21.80;99.70
16970;DHT22;8601;48.718;8.992;2022-10-16T13:44:14;21.90;98.00
16970;DHT22;8601;48.718;8.992;2022-10-16T13:46:41;21.80;98.90
16970;DHT22;8601;48.718;8.992;2022-10-16T13:49:19;21.80;99.90
16970;DHT22;8601;48.718;8.992;2022-10-16T13:51:54;21.80;99.10
16970;DHT22;8601;48.718;8.992;2022-10-16T13:54:24;21.80;99.90
16970;DHT22;8601;48.718;8.992;2022-10-16T13:56:53;21.50;99.90
16970;DHT22;8601;48.718;8.992;2022-10-16T13:59:36;21.30;99.90
16970;DHT22;8601;48.718;8.992;2022-10-16T14:02:14;21.10;99.90
16970;DHT22;8601;48.718;8.992;2022-10-16T14:04:48;21.00;99.90
16970;DHT22;8601;48.718;8.992;2022-10-16T14:07:19;21.00;99.90
16970;DHT22;8601;48.718;8.992;2022-10-16T14:09:50;20.90;99.90
16970;DHT22;8601;48.718;8.992;2022-10-16T14:12:18;20.90;99.90
16970;DHT22;8601;48.718;8.992;2022-10-16T14:14:50;20.90;99.90
16970;DHT22;8601;48.718;8.992;2022-10-16T14:17:19;21.00;99.90
16970;DHT22;8601;48.718;8.992;2022-10-16T14:19:48;20.90;99.90
16970;DHT22;8601;48.718;8.992;2022-10-16T14:22:28;21.00;99.90
16970;DHT22;8601;48.718;8.992;2022-10-16T14:24:58;20.90;99.90
16970;DHT22;8601;48.718;8.992;2022-10-16T14:27:29;20.90;99.90
16970;DHT22;8601;48.718;8.992;2022-10-16T14:30:23;20.90;99.90
16970;DHT22;8601;48.718;8.992;2022-10-16T14:33:19;20.90;99.90
16970;DHT22;8601;48.718;8.992;2022-10-16T14:36:02;20.90;99.90
16970;DHT22;8601;48.718;8.992;2022-10-16T14:38:33;20.90;99.90
16970;DHT22;8601;48.718;8.992;2022-10-16T14:41:05;21.00;99.90
16970;DHT22;8601;48.718;8.992;2022-10-16T14:43:42;20.90;99.90
16970;DHT22;8601;48.718;8.992;2022-10-16T14:52:28;20.90;99.90
16970;DHT22;8601;48.718;8.992;2022-10-16T14:54:55;20.90;99.90
16970;DHT22;8601;48.718;8.992;2022-10-16T14:57:24;21.00;99.90
16970;DHT22;8601;48.718;8.992;2022-10-16T14:59:53;21.10;99.90
16970;DHT22;8601;48.718;8.992;2022-10-16T15:02:27;21.20;99.90
16970;DHT22;8601;48.718;8.992;2022-10-16T15:05:13;21.20;99.90
16970;DHT22;8601;48.718;8.992;2022-10-16T15:07:45;21.10;99.90
16970;DHT22;8601;48.718;8.992;2022-10-16T15:10:13;21.00;99.90
16970;DHT22;8601;48.718;8.992;2022-10-16T15:12:40;20.90;99.90
16970;DHT22;8601;48.718;8.992;2022-10-16T15:15:35;20.90;99.90
16970;DHT22;8601;48.718;8.992;2022-10-16T15:18:02;20.90;99.90
16970;DHT22;8601;48.718;8.992;2022-10-16T15:20:31;20.90;99.90
16970;DHT22;8601;48.718;8.992;2022-10-16T15:23:01;20.70;99.90
16970;DHT22;8601;48.718;8.992;2022-10-16T15:25:51;20.70;99.90
16970;DHT22;8601;48.718;8.992;2022-10-16T15:28:19;20.50;99.90
16970;DHT22;8601;48.718;8.992;2022-10-16T15:30:48;20.40;99.90
16970;DHT22;8601;48.718;8.992;2022-10-16T15:33:17;20.40;99.90
16970;DHT22;8601;48.718;8.992;2022-10-16T15:35:56;20.30;99.90
16970;DHT22;8601;48.718;8.992;2022-10-16T15:38:24;20.20;99.90
16970;DHT22;8601;48.718;8.992;2022-10-16T15:40:52;20.00;99.90
16970;DHT22;8601;48.718;8.992;2022-10-16T15:43:19;19.90;99.90
16970;DHT22;8601;48.718;8.992;2022-10-16T15:45:58;19.70;99.90
16970;DHT22;8601;48.718;8.992;2022-10-16T15:48:25;19.50;99.90
16970;DHT22;8601;48.718;8.992;2022-10-16T15:51:10;19.40;99.90
16970;DHT22;8601;48.718;8.992;2022-10-16T15:53:50;19.30;99.90
16970;DHT22;8601;48.718;8.992;2022-10-16T15:56:18;19.30;99.90
16970;DHT22;8601;48.718;8.992;2022-10-16T15:58:45;19.20;99.90
16970;DHT22;8601;48.718;8.992;2022-10-16T16:01:12;19.20;99.90
16970;DHT22;8601;48.718;8.992;2022-10-16T16:03:57;19.10;99.90
16970;DHT22;8601;48.718;8.992;2022-10-16T16:06:27;19.00;99.90
16970;DHT22;8601;48.718;8.992;2022-10-16T16:09:08;18.90;99.90
16970;DHT22;8601;48.718;8.992;2022-10-16T16:11:35;18.90;99.90
16970;DHT22;8601;48.718;8.992;2022-10-16T16:14:04;18.90;99.90
16970;DHT22;8601;48.718;8.992;2022-10-16T16:16:31;18.80;99.90
16970;DHT22;8601;48.718;8.992;2022-10-16T16:19:04;18.80;99.90
16970;DHT22;8601;48.718;8.992;2022-10-16T16:21:40;18.70;99.90
16970;DHT22;8601;48.718;8.992;2022-10-16T16:24:11;18.60;99.90
16970;DHT22;8601;48.718;8.992;2022-10-16T16:27:03;18.60;99.90
16970;DHT22;8601;48.718;8.992;2022-10-16T16:29:30;18.60;99.90
16970;DHT22;8601;48.718;8.992;2022-10-16T16:31:59;18.50;99.90
16970;DHT22;8601;48.718;8.992;2022-10-16T16:34:28;18.50;99.90
16970;DHT22;8601;48.718;8.992;2022-10-16T16:36:55;18.50;99.90
16970;DHT22;8601;48.718;8.992;2022-10-16T16:39:24;18.50;99.90
16970;DHT22;8601;48.718;8.992;2022-10-16T16:42:14;18.50;99.90
16970;DHT22;8601;48.718;8.992;2022-10-16T16:44:42;18.50;99.90
16970;DHT22;8601;48.718;8.992;2022-10-16T16:47:10;18.50;99.90